Time;durP1;ratioP1;P1;durP2;ratioP2;P2;SDS_P1;SDS_P2;PMS_P1;PMS_P2;Temp;Humidity;BMP_temperature;BMP_pressure;BME280_temperature;BME280_humidity;BME280_pressure;Samples;Min_cycle;Max_cycle;Signal;HPM_P1;HPM_P2
2021/08/16 00:00:47;;;;;;;8.70;3.63;;;;;;;18.72;80.34;100052.28;5052152;28;20172;-71
2021/08/16 00:03:12;;;;;;;6.73;3.53;;;;;;;18.78;79.20;100048.13;5035516;28;20178;-71
2021/08/16 00:05:37;;;;;;;8.13;3.70;;;;;;;18.77;79.92;100041.03;5052063;28;20168;-71
2021/08/16 00:08:07;;;;;;;10.83;4.00;;;;;;;18.75;79.87;100037.63;5052442;28;20265;-72
2021/08/16 00:10:33;;;;;;;10.47;4.23;;;;;;;18.74;79.74;100041.34;5052096;28;20548;-72
2021/08/16 00:12:58;;;;;;;5.93;3.77;;;;;;;18.64;80.72;100041.41;5051962;28;20218;-71
2021/08/16 00:15:24;;;;;;;7.20;3.73;;;;;;;18.60;81.14;100039.13;5052013;28;20544;-70
2021/08/16 00:17:49;;;;;;;8.47;4.23;;;;;;;18.51;81.64;100040.00;5051647;28;20202;-71
2021/08/16 00:20:14;;;;;;;7.10;3.80;;;;;;;18.44;81.88;100040.63;5035158;28;20184;-71
2021/08/16 00:22:40;;;;;;;5.17;3.40;;;;;;;18.42;81.82;100050.72;5035322;28;20544;-72
2021/08/16 00:25:05;;;;;;;8.73;4.23;;;;;;;18.43;81.11;100044.31;5035321;28;20179;-71
2021/08/16 00:27:31;;;;;;;8.60;4.13;;;;;;;18.47;80.19;100038.59;5051800;28;20265;-72
2021/08/16 00:29:56;;;;;;;5.50;3.77;;;;;;;18.41;80.35;100040.91;5052941;28;20187;-71
2021/08/16 00:32:21;;;;;;;6.60;3.70;;;;;;;18.32;79.92;100032.88;5051805;28;20199;-71
2021/08/16 00:34:46;;;;;;;8.40;3.63;;;;;;;18.23;79.25;100031.94;5051668;28;20190;-71
2021/08/16 00:37:12;;;;;;;8.53;3.70;;;;;;;18.21;78.30;100027.66;5051917;28;20175;-70
2021/08/16 00:39:37;;;;;;;6.47;3.53;;;;;;;18.19;77.95;100025.09;5034919;28;20203;-71
2021/08/16 00:42:05;;;;;;;4.77;3.50;;;;;;;18.16;78.13;100028.09;5053120;28;20175;-71
2021/08/16 00:44:30;;;;;;;4.57;3.20;;;;;;;18.06;78.34;100027.28;5051807;28;20174;-72
2021/08/16 00:46:56;;;;;;;8.87;3.73;;;;;;;18.07;78.44;100020.91;5035211;28;20179;-72
2021/08/16 00:49:21;;;;;;;10.07;3.63;;;;;;;18.02;78.57;100009.69;5051846;28;20241;-72
2021/08/16 00:51:46;;;;;;;7.40;3.80;;;;;;;18.02;78.30;100009.69;5052245;28;20715;-71
2021/08/16 00:54:12;;;;;;;7.50;4.20;;;;;;;17.96;78.71;100004.91;5051747;28;20175;-71
2021/08/16 00:56:39;;;;;;;7.80;4.13;;;;;;;17.96;78.80;99999.50;5051540;28;20171;-71
2021/08/16 00:59:11;;;;;;;8.67;3.53;;;;;;;17.95;78.80;99995.09;5034491;28;20207;-71
2021/08/16 01:01:37;;;;;;;5.50;4.07;;;;;;;17.95;78.81;99997.78;5051689;28;20536;-71
2021/08/16 01:04:02;;;;;;;8.97;4.33;;;;;;;18.00;78.55;99990.94;5051474;28;20172;-72
2021/08/16 01:06:28;;;;;;;4.90;3.73;;;;;;;18.03;78.19;99977.16;5034835;28;20266;-72
2021/08/16 01:08:54;;;;;;;5.70;4.10;;;;;;;18.04;78.18;99981.53;5035271;28;20202;-72
2021/08/16 01:11:20;;;;;;;7.13;4.10;;;;;;;18.02;78.36;99970.03;5034828;28;20195;-72
2021/08/16 01:13:46;;;;;;;9.83;4.97;;;;;;;18.02;78.36;99966.50;5034944;28;20176;-72
2021/08/16 01:16:14;;;;;;;8.03;4.30;;;;;;;18.00;78.40;99955.84;5051448;28;20705;-72
2021/08/16 01:18:40;;;;;;;8.17;4.10;;;;;;;18.00;78.70;99949.59;5051433;28;20192;-71
2021/08/16 01:21:08;;;;;;;6.07;3.90;;;;;;;17.94;78.67;99948.34;5053077;28;20179;-72
2021/08/16 01:23:33;;;;;;;9.07;4.73;;;;;;;17.91;79.25;99947.81;5034730;28;20230;-72
2021/08/16 01:25:59;;;;;;;8.13;4.80;;;;;;;17.86;79.11;99953.66;5034841;28;20202;-72
2021/08/16 01:28:24;;;;;;;7.37;4.57;;;;;;;17.81;79.23;99954.06;5034683;28;20340;-72
2021/08/16 01:30:54;;;;;;;8.30;5.13;;;;;;;17.78;79.77;99953.53;5053624;28;20225;-71
2021/08/16 01:33:20;;;;;;;6.80;4.93;;;;;;;17.76;79.84;99947.44;5055141;28;20180;-71
2021/08/16 01:35:45;;;;;;;9.57;4.63;;;;;;;17.76;80.14;99942.03;5038445;28;20171;-71
2021/08/16 01:38:10;;;;;;;8.47;5.27;;;;;;;17.76;79.77;99928.53;5038560;28;20748;-71
2021/08/16 01:40:36;;;;;;;14.13;5.17;;;;;;;17.67;80.07;99924.03;5055264;28;20176;-71
2021/08/16 01:43:01;;;;;;;10.00;5.23;;;;;;;17.61;80.46;99921.91;5055508;28;20512;-72
2021/08/16 01:45:27;;;;;;;8.20;4.73;;;;;;;17.58;80.53;99920.34;5055793;28;20175;-71
2021/08/16 01:47:52;;;;;;;9.67;4.90;;;;;;;17.64;80.08;99917.06;5055123;28;20229;-72
2021/08/16 01:50:17;;;;;;;11.50;4.77;;;;;;;17.65;80.41;99910.66;5056401;28;20229;-71
2021/08/16 01:52:43;;;;;;;6.27;4.60;;;;;;;17.71;80.25;99906.53;5055042;28;20568;-71
2021/08/16 01:55:09;;;;;;;7.87;4.60;;;;;;;17.75;79.63;99910.63;5054958;28;20168;-71
2021/08/16 01:57:34;;;;;;;11.43;4.87;;;;;;;17.74;79.88;99896.28;5038105;28;20233;-71
2021/08/16 02:00:00;;;;;;;7.83;5.03;;;;;;;17.77;79.77;99893.28;5054585;28;20760;-71
2021/08/16 02:02:25;;;;;;;8.37;4.77;;;;;;;17.78;79.50;99889.59;5054929;28;20174;-72
2021/08/16 02:04:50;;;;;;;8.87;4.57;;;;;;;17.77;79.74;99884.34;5037968;28;20179;-71
2021/08/16 02:07:16;;;;;;;8.40;4.80;;;;;;;17.74;80.18;99880.09;5054929;28;20532;-71
2021/08/16 02:09:41;;;;;;;7.70;4.53;;;;;;;17.76;79.74;99885.34;5055589;28;20333;-71
2021/08/16 02:12:07;;;;;;;9.10;5.40;;;;;;;17.77;79.67;99884.34;5037749;28;20192;-72
2021/08/16 02:14:32;;;;;;;7.23;4.83;;;;;;;17.77;79.86;99884.34;5054339;28;20176;-71
2021/08/16 02:16:58;;;;;;;8.40;4.37;;;;;;;17.83;79.60;99893.69;5054413;28;20179;-71
2021/08/16 02:19:23;;;;;;;8.83;4.57;;;;;;;17.90;78.82;99892.13;5054516;28;20202;-71
2021/08/16 02:21:48;;;;;;;10.37;4.80;;;;;;;18.02;78.75;99886.34;5054392;28;20179;-72
2021/08/16 02:24:14;;;;;;;7.70;4.80;;;;;;;18.09;78.50;99889.28;5054499;28;20229;-71
2021/08/16 02:26:39;;;;;;;8.27;4.87;;;;;;;18.24;78.30;99900.44;5056596;28;20176;-71
2021/08/16 02:29:04;;;;;;;12.87;5.20;;;;;;;18.25;78.02;99897.59;5058039;28;20542;-71
2021/08/16 02:31:31;;;;;;;9.77;4.90;;;;;;;18.27;77.87;99898.28;5063967;28;20291;-71
2021/08/16 02:33:56;;;;;;;8.30;5.57;;;;;;;18.32;78.38;99898.66;5070596;28;20612;-72
2021/08/16 02:36:22;;;;;;;8.27;5.10;;;;;;;18.25;79.26;99897.59;5075557;28;20198;-71
2021/08/16 02:38:47;;;;;;;8.10;5.57;;;;;;;18.23;79.88;99907.69;5073972;28;20206;-71
2021/08/16 02:41:13;;;;;;;9.57;5.27;;;;;;;18.21;79.99;99916.91;5056416;28;20194;-72
2021/08/16 02:43:38;;;;;;;8.60;4.93;;;;;;;18.17;80.69;99926.31;5053775;28;20180;-71
2021/08/16 02:46:04;;;;;;;7.53;4.90;;;;;;;18.31;80.73;99928.53;5037272;28;20658;-72
2021/08/16 02:48:29;;;;;;;10.70;4.87;;;;;;;18.25;80.69;99931.84;5053886;28;20195;-72
2021/08/16 02:50:54;;;;;;;10.10;4.87;;;;;;;18.00;81.05;99936.09;5053758;28;20620;-71
2021/08/16 02:53:19;;;;;;;6.80;4.93;;;;;;;18.08;80.82;99947.00;5054969;28;20276;-71
2021/08/16 02:55:45;;;;;;;7.33;4.47;;;;;;;18.06;80.76;99935.50;5053603;28;20175;-71
2021/08/16 02:58:10;;;;;;;6.47;4.57;;;;;;;17.90;81.32;99933.47;5053939;28;20234;-72
2021/08/16 03:00:35;;;;;;;11.80;4.70;;;;;;;17.69;82.88;99912.09;5054230;28;20178;-73
2021/08/16 03:03:01;;;;;;;9.33;4.80;;;;;;;17.59;83.37;99916.66;5037880;28;20262;-71
2021/08/16 03:05:26;;;;;;;7.90;4.70;;;;;;;17.42;84.36;99909.31;5055403;28;20172;-71
2021/08/16 03:07:51;;;;;;;9.13;5.17;;;;;;;17.25;85.22;99913.63;5037150;28;20230;-71
2021/08/16 03:10:17;;;;;;;11.57;4.73;;;;;;;17.18;85.58;99916.06;5053780;28;20711;-71
2021/08/16 03:12:42;;;;;;;7.77;4.60;;;;;;;17.14;85.60;99903.03;5053498;28;20735;-72
2021/08/16 03:15:08;;;;;;;7.47;4.53;;;;;;;17.02;86.39;99898.78;5054330;28;20207;-71
2021/08/16 03:17:33;;;;;;;6.93;4.57;;;;;;;16.90;87.17;99899.94;5036335;28;20226;-70
2021/08/16 03:19:58;;;;;;;7.50;4.43;;;;;;;16.94;87.61;99902.19;5052864;28;20242;-71
2021/08/16 03:22:24;;;;;;;7.80;4.80;;;;;;;17.07;86.93;99904.59;5053007;28;20286;-71
2021/08/16 03:24:49;;;;;;;7.87;4.70;;;;;;;17.16;86.83;99922.59;5052973;28;20183;-71
2021/08/16 03:27:15;;;;;;;10.30;4.70;;;;;;;17.40;85.78;99939.13;5053354;28;20179;-70
2021/08/16 03:29:40;;;;;;;8.43;4.60;;;;;;;17.68;84.49;99990.50;5036251;28;20226;-71
2021/08/16 03:32:06;;;;;;;10.90;5.17;;;;;;;17.20;92.67;100023.78;5052726;28;20675;-70
2021/08/16 03:34:31;;;;;;;11.37;6.37;;;;;;;16.40;100.00;99986.25;5052879;28;20656;-70
2021/08/16 03:36:57;;;;;;;10.07;6.37;;;;;;;15.79;100.00;99943.28;5053898;28;20187;-69
2021/08/16 03:39:22;;;;;;;11.53;6.17;;;;;;;15.50;100.00;99941.28;5053867;28;20225;-69
2021/08/16 03:41:47;;;;;;;11.57;7.23;;;;;;;15.43;100.00;99925.81;5054252;28;20692;-70
2021/08/16 03:44:12;;;;;;;11.87;7.47;;;;;;;15.40;100.00;99923.38;5053889;28;20179;-70
2021/08/16 03:46:38;;;;;;;10.63;7.47;;;;;;;15.29;100.00;99924.34;5053588;28;20175;-70
2021/08/16 03:49:03;;;;;;;11.07;7.27;;;;;;;15.26;100.00;99928.16;5052531;28;20227;-69
2021/08/16 03:51:28;;;;;;;11.47;7.73;;;;;;;15.31;100.00;99954.63;5054145;28;20706;-70
2021/08/16 03:53:54;;;;;;;11.33;7.60;;;;;;;15.42;100.00;99983.25;5035378;28;20560;-69
2021/08/16 03:56:19;;;;;;;15.13;7.90;;;;;;;15.34;100.00;99959.72;5036131;28;20690;-69
2021/08/16 03:58:44;;;;;;;15.00;8.70;;;;;;;15.18;100.00;99933.31;5037050;28;20215;-70
2021/08/16 04:01:10;;;;;;;13.63;8.27;;;;;;;15.11;100.00;99940.19;5052603;28;20194;-70
2021/08/16 04:03:38;;;;;;;14.97;8.60;;;;;;;15.06;100.00;99934.38;5035846;28;20663;-69
2021/08/16 04:06:04;;;;;;;24.63;9.53;;;;;;;15.06;100.00;99937.06;5052350;28;20672;-70
2021/08/16 04:08:29;;;;;;;16.53;10.40;;;;;;;15.02;100.00;99923.03;5053576;28;20290;-70
2021/08/16 04:10:54;;;;;;;16.13;9.37;;;;;;;14.99;100.00;99906.31;5036810;28;20266;-71
2021/08/16 04:13:20;;;;;;;17.90;9.67;;;;;;;15.06;100.00;99899.44;5052390;28;20221;-69
2021/08/16 04:15:45;;;;;;;19.83;10.00;;;;;;;15.10;100.00;99902.72;5053744;28;20179;-71
2021/08/16 04:18:10;;;;;;;18.20;9.83;;;;;;;15.09;100.00;99893.78;5053499;28;20199;-70
2021/08/16 04:20:36;;;;;;;19.43;9.77;;;;;;;15.06;100.00;99896.75;5052137;28;20245;-71
2021/08/16 04:23:01;;;;;;;12.70;7.80;;;;;;;15.07;100.00;99913.72;5035554;28;20180;-69
2021/08/16 04:25:26;;;;;;;12.83;8.03;;;;;;;15.11;100.00;99920.53;5035432;28;20210;-69
2021/08/16 04:27:52;;;;;;;16.90;9.60;;;;;;;15.17;100.00;99944.19;5052115;28;20176;-71
2021/08/16 04:30:17;;;;;;;19.17;8.87;;;;;;;15.22;100.00;99936.56;5053706;28;20218;-72
2021/08/16 04:32:43;;;;;;;10.97;8.10;;;;;;;15.20;100.00;99920.59;5036184;28;20328;-70
2021/08/16 04:35:08;;;;;;;9.83;7.33;;;;;;;15.13;100.00;99916.72;5051975;28;20215;-70
2021/08/16 04:37:35;;;;;;;10.57;7.17;;;;;;;15.16;100.00;99919.16;5052150;28;20191;-71
2021/08/16 04:40:01;;;;;;;15.40;7.90;;;;;;;15.17;100.00;99906.56;5051710;28;20195;-71
2021/08/16 04:42:26;;;;;;;11.80;7.30;;;;;;;15.17;100.00;99888.59;5052185;28;20702;-71
2021/08/16 04:44:51;;;;;;;14.07;7.87;;;;;;;15.17;100.00;99874.31;5052058;28;20171;-71
2021/08/16 04:47:16;;;;;;;11.90;7.83;;;;;;;15.15;100.00;99879.81;5035600;28;20176;-71
2021/08/16 04:49:42;;;;;;;15.70;8.03;;;;;;;15.22;100.00;99864.84;5052372;28;20205;-73
2021/08/16 04:52:07;;;;;;;11.30;7.97;;;;;;;15.25;100.00;99870.00;5053872;28;20556;-70
2021/08/16 04:54:32;;;;;;;14.30;9.00;;;;;;;15.22;100.00;99858.63;5053996;28;20175;-71
2021/08/16 04:56:58;;;;;;;13.10;8.33;;;;;;;15.22;100.00;99867.53;5035333;28;20179;-70
2021/08/16 04:59:23;;;;;;;13.83;7.90;;;;;;;15.30;100.00;99867.75;5053370;28;20257;-71
2021/08/16 05:01:50;;;;;;;14.90;7.80;;;;;;;15.31;100.00;99863.22;5053687;28;20171;-71
2021/08/16 05:04:15;;;;;;;13.07;8.07;;;;;;;15.26;100.00;99860.09;5036519;28;20619;-70
2021/08/16 05:06:42;;;;;;;11.90;6.60;;;;;;;15.16;100.00;99860.03;5056137;28;20203;-71
2021/08/16 05:09:08;;;;;;;17.77;8.27;;;;;;;15.21;100.00;99859.63;5039150;28;20195;-70
2021/08/16 05:11:33;;;;;;;15.70;7.87;;;;;;;15.22;100.00;99856.78;5055646;28;20690;-71
2021/08/16 05:13:59;;;;;;;14.03;8.33;;;;;;;15.24;100.00;99859.38;5038907;28;20186;-72
2021/08/16 05:16:25;;;;;;;25.10;9.50;;;;;;;15.36;100.00;99844.00;5055710;28;20225;-71
2021/08/16 05:18:51;;;;;;;17.57;9.80;;;;;;;15.53;100.00;99836.13;5055415;28;20265;-72
2021/08/16 05:21:16;;;;;;;22.00;10.53;;;;;;;15.62;100.00;99853.34;5039020;28;20179;-71
2021/08/16 05:23:42;;;;;;;10.70;7.63;;;;;;;15.53;100.00;99852.25;5055991;28;20182;-72
2021/08/16 05:26:07;;;;;;;12.23;7.30;;;;;;;15.36;100.00;99844.00;5057148;28;20212;-71
2021/08/16 05:28:32;;;;;;;11.13;6.83;;;;;;;15.31;100.00;99847.94;5056676;28;20199;-72
2021/08/16 05:30:58;;;;;;;16.63;6.27;;;;;;;15.23;100.00;99844.19;5055630;28;20212;-71
2021/08/16 05:33:23;;;;;;;10.93;6.40;;;;;;;15.24;100.00;99845.94;5056432;28;20207;-72
2021/08/16 05:35:49;;;;;;;10.17;6.63;;;;;;;15.26;100.00;99844.81;5038465;28;20304;-71
2021/08/16 05:38:14;;;;;;;13.13;7.03;;;;;;;15.28;100.00;99847.38;5056552;28;20560;-71
2021/08/16 05:40:39;;;;;;;13.23;7.80;;;;;;;15.42;100.00;99848.81;5054925;28;20203;-71
2021/08/16 05:43:05;;;;;;;10.33;6.93;;;;;;;15.64;100.00;99851.34;5038278;28;20176;-72
2021/08/16 05:45:30;;;;;;;10.30;6.43;;;;;;;15.70;100.00;99852.63;5054994;28;20232;-71
2021/08/16 05:47:56;;;;;;;9.60;6.00;;;;;;;15.76;100.00;99858.31;5054639;28;20179;-72
2021/08/16 05:50:22;;;;;;;10.87;5.47;;;;;;;15.71;100.00;99860.56;5054685;28;20589;-72
2021/08/16 05:52:48;;;;;;;8.17;5.67;;;;;;;15.76;100.00;99868.22;5038061;28;20234;-70
2021/08/16 05:55:13;;;;;;;7.87;5.60;;;;;;;15.74;100.00;99868.38;5054788;28;20548;-71
2021/08/16 05:57:38;;;;;;;6.87;5.23;;;;;;;15.73;100.00;99869.34;5038254;28;20262;-71
2021/08/16 06:00:05;;;;;;;11.10;5.73;;;;;;;15.92;100.00;99866.69;5054777;28;20191;-71
2021/08/16 06:02:32;;;;;;;7.03;5.30;;;;;;;15.93;100.00;99870.22;5038074;28;20729;-71
2021/08/16 06:04:57;;;;;;;9.30;5.30;;;;;;;15.91;100.00;99874.91;5038241;28;20229;-70
2021/08/16 06:07:23;;;;;;;9.33;5.83;;;;;;;15.92;100.00;99874.75;5054737;28;20180;-71
2021/08/16 06:09:48;;;;;;;9.57;4.97;;;;;;;15.83;100.00;99875.59;5054478;28;20249;-71
2021/08/16 06:12:13;;;;;;;7.70;5.33;;;;;;;15.86;100.00;99879.84;5054952;28;20630;-72
2021/08/16 06:14:38;;;;;;;12.80;9.83;;;;;;;15.85;100.00;99872.78;5054705;28;20177;-71
2021/08/16 06:17:05;;;;;;;6.37;5.13;;;;;;;15.84;100.00;99874.59;5053967;28;20180;-72
2021/08/16 06:19:30;;;;;;;6.60;5.20;;;;;;;15.81;100.00;99865.97;5054917;28;20249;-70
2021/08/16 06:21:55;;;;;;;8.33;6.10;;;;;;;15.91;100.00;99873.06;5055767;28;20176;-70
2021/08/16 06:24:20;;;;;;;9.10;6.80;;;;;;;15.98;100.00;99878.75;5054305;28;20640;-70
2021/08/16 06:26:46;;;;;;;11.23;5.90;;;;;;;16.10;100.00;99876.81;5055685;28;20254;-71
2021/08/16 06:29:12;;;;;;;9.63;6.80;;;;;;;16.22;100.00;99871.13;5054239;28;20234;-70
2021/08/16 06:31:37;;;;;;;9.27;6.00;;;;;;;16.32;100.00;99872.97;5038144;28;20238;-71
2021/08/16 06:34:05;;;;;;;7.50;5.23;;;;;;;16.30;100.00;99867.72;5055795;28;20180;-72
2021/08/16 06:36:37;;;;;;;6.97;5.33;;;;;;;16.26;100.00;99877.94;5055359;28;20191;-72
2021/08/16 06:39:02;;;;;;;10.83;6.13;;;;;;;16.31;100.00;99874.81;5054217;28;20201;-71
2021/08/16 06:41:27;;;;;;;16.40;5.47;;;;;;;16.28;100.00;99869.72;5037470;28;20175;-72
2021/08/16 06:43:52;;;;;;;9.17;5.57;;;;;;;16.32;100.00;99865.75;5037214;28;20238;-72
2021/08/16 06:46:18;;;;;;;8.23;5.87;;;;;;;16.22;100.00;99860.38;5037622;28;20215;-72
2021/08/16 06:48:43;;;;;;;7.47;5.30;;;;;;;16.30;100.00;99866.88;5037116;28;20705;-72
2021/08/16 06:51:08;;;;;;;9.83;7.53;;;;;;;16.17;100.00;99859.94;5053712;28;20175;-72
2021/08/16 06:53:34;;;;;;;9.50;6.07;;;;;;;16.41;100.00;99864.94;5053953;28;20179;-71
2021/08/16 06:55:59;;;;;;;8.57;5.60;;;;;;;16.64;100.00;99870.00;5054027;28;20184;-70
2021/08/16 06:58:24;;;;;;;6.30;5.03;;;;;;;16.83;100.00;99873.56;5054660;28;20642;-71
2021/08/16 07:00:50;;;;;;;6.60;4.17;;;;;;;16.85;100.00;99862.66;5057099;28;20240;-72
2021/08/16 07:03:15;;;;;;;5.90;3.80;;;;;;;16.82;100.00;99862.94;5056686;28;20171;-71
2021/08/16 07:05:42;;;;;;;6.43;4.23;;;;;;;17.11;100.00;99868.28;5074563;28;20171;-71
2021/08/16 07:08:07;;;;;;;4.87;3.17;;;;;;;17.36;100.00;99866.75;5076776;28;20179;-69
2021/08/16 07:10:33;;;;;;;4.30;3.37;;;;;;;16.93;100.00;99864.63;5076524;28;20210;-71
2021/08/16 07:12:59;;;;;;;6.13;3.30;;;;;;;17.13;100.00;99869.81;5075127;28;20183;-72
2021/08/16 07:15:24;;;;;;;5.40;3.43;;;;;;;17.22;100.00;99864.53;5037413;28;20666;-71
2021/08/16 07:17:49;;;;;;;4.43;3.20;;;;;;;17.31;100.00;99861.81;5036863;28;20179;-71
2021/08/16 07:20:14;;;;;;;7.83;3.83;;;;;;;16.99;100.00;99869.41;5053284;28;20167;-69
2021/08/16 07:22:40;;;;;;;4.60;3.40;;;;;;;17.74;100.00;99865.75;5053214;28;20179;-70
2021/08/16 07:25:05;;;;;;;5.53;3.20;;;;;;;17.83;100.00;99862.16;5053302;28;20579;-70
2021/08/16 07:27:31;;;;;;;6.43;4.00;;;;;;;17.94;100.00;99863.81;5035525;28;20568;-71
2021/08/16 07:29:56;;;;;;;4.33;2.93;;;;;;;18.24;95.51;99857.22;5036074;28;20195;-71
2021/08/16 07:32:21;;;;;;;4.77;3.33;;;;;;;18.52;95.39;99856.13;5052869;28;20237;-71
2021/08/16 07:34:47;;;;;;;4.07;2.80;;;;;;;18.81;95.54;99858.59;5052703;28;20540;-71
2021/08/16 07:37:13;;;;;;;5.73;3.07;;;;;;;19.00;90.01;99850.28;5052656;28;20183;-71
2021/08/16 07:39:39;;;;;;;3.60;2.63;;;;;;;19.13;87.95;99849.00;5052820;28;20223;-71
2021/08/16 07:42:04;;;;;;;6.03;3.30;;;;;;;19.34;89.91;99850.34;5052767;28;20199;-71
2021/08/16 07:44:29;;;;;;;4.20;2.83;;;;;;;19.27;88.92;99859.22;5036515;28;20615;-72
2021/08/16 07:46:56;;;;;;;3.40;2.40;;;;;;;19.01;86.84;99860.09;5053814;28;20567;-71
2021/08/16 07:49:22;;;;;;;5.67;3.73;;;;;;;18.93;87.71;99848.34;5036875;28;20227;-72
2021/08/16 07:51:47;;;;;;;6.70;5.17;;;;;;;19.28;85.69;99858.22;5035790;28;20711;-72
2021/08/16 07:54:13;;;;;;;4.77;2.63;;;;;;;19.42;84.90;99851.38;5052743;28;20255;-72
2021/08/16 07:56:38;;;;;;;5.23;2.97;;;;;;;19.44;85.66;99858.31;5052563;28;20655;-71
2021/08/16 07:59:03;;;;;;;3.93;2.40;;;;;;;19.51;84.80;99856.66;5052260;28;20203;-71
2021/08/16 08:01:28;;;;;;;3.13;2.30;;;;;;;19.64;83.63;99851.66;5054056;28;20179;-71
2021/08/16 08:03:54;;;;;;;3.47;2.40;;;;;;;19.62;83.85;99856.41;5053286;28;20565;-72
2021/08/16 08:06:19;;;;;;;4.10;2.40;;;;;;;19.51;83.42;99855.81;5035539;28;20171;-72
2021/08/16 08:08:44;;;;;;;3.03;2.23;;;;;;;19.64;83.32;99848.97;5035772;28;20210;-71
2021/08/16 08:11:10;;;;;;;3.40;2.03;;;;;;;19.77;82.04;99866.63;5052176;28;20172;-73
2021/08/16 08:13:37;;;;;;;3.80;2.30;;;;;;;19.95;80.88;99854.66;5052246;28;20616;-74
2021/08/16 08:16:02;;;;;;;3.70;1.93;;;;;;;20.02;80.32;99857.56;5052043;28;20550;-73
2021/08/16 08:18:27;;;;;;;4.23;2.47;;;;;;;20.02;79.75;99852.13;5053929;28;20210;-72
2021/08/16 08:20:53;;;;;;;4.17;2.27;;;;;;;19.86;80.51;99862.94;5035292;28;20176;-71
2021/08/16 08:23:18;;;;;;;3.27;2.20;;;;;;;19.74;81.63;99861.53;5035589;28;20214;-73
2021/08/16 08:25:43;;;;;;;5.23;2.40;;;;;;;19.83;81.56;99874.09;5052820;28;20525;-72
2021/08/16 08:28:12;;;;;;;7.00;2.60;;;;;;;19.79;80.43;99878.13;5052307;28;20187;-71
2021/08/16 08:30:41;;;;;;;4.13;2.40;;;;;;;19.85;80.84;99872.06;5053089;28;20194;-71
2021/08/16 08:33:06;;;;;;;3.23;2.50;;;;;;;19.89;79.65;99878.84;5035171;28;20257;-71
2021/08/16 08:35:31;;;;;;;4.03;2.20;;;;;;;20.09;79.78;99864.03;5035094;28;20167;-73
2021/08/16 08:37:57;;;;;;;3.63;2.40;;;;;;;20.15;79.64;99866.06;5052964;28;20195;-71
2021/08/16 08:40:22;;;;;;;5.03;2.67;;;;;;;20.04;80.34;99869.06;5051721;28;20179;-70
2021/08/16 08:42:53;;;;;;;3.50;2.77;;;;;;;20.07;80.52;99885.03;5051772;28;20199;-71
2021/08/16 08:45:20;;;;;;;4.33;2.77;;;;;;;19.75;80.44;99877.63;5051652;28;20175;-70
2021/08/16 08:47:47;;;;;;;7.10;3.23;;;;;;;19.97;80.06;99870.75;5051594;28;20229;-72
2021/08/16 08:50:16;;;;;;;4.53;2.60;;;;;;;20.21;80.22;99869.97;5051763;28;20204;-70
2021/08/16 08:52:45;;;;;;;5.63;2.90;;;;;;;20.35;78.61;99876.59;5051658;28;20203;-71
2021/08/16 08:55:12;;;;;;;6.10;2.83;;;;;;;20.34;78.77;99874.91;5051711;28;20203;-70
2021/08/16 08:57:37;;;;;;;5.27;2.80;;;;;;;20.23;79.19;99887.75;5053085;28;20183;-71
2021/08/16 09:00:05;;;;;;;5.80;2.80;;;;;;;20.34;78.08;99889.28;5052645;28;20203;-71
2021/08/16 09:02:30;;;;;;;4.27;2.70;;;;;;;19.92;79.36;99889.34;5051541;28;20184;-69
2021/08/16 09:04:56;;;;;;;6.00;3.70;;;;;;;19.78;80.88;99887.28;5051799;28;20175;-70
2021/08/16 09:07:40;;;;;;;5.43;3.40;;;;;;;19.95;80.58;99881.75;5051455;28;20168;-70
2021/08/16 09:10:16;;;;;;;7.13;3.93;;;;;;;20.07;78.62;99893.16;5034997;28;20543;-70
2021/08/16 09:12:42;;;;;;;6.90;3.80;;;;;;;20.17;78.48;99883.00;5051308;28;20195;-69
2021/08/16 09:15:19;;;;;;;8.07;4.10;;;;;;;20.12;76.65;99885.38;5034746;28;20232;-69
2021/08/16 09:17:45;;;;;;;7.73;4.67;;;;;;;19.81;78.33;99878.81;5051592;28;20172;-72
2021/08/16 09:20:23;;;;;;;7.23;4.03;;;;;;;19.81;78.70;99881.53;5034644;28;20196;-70
2021/08/16 09:23:00;;;;;;;5.47;3.60;;;;;;;20.00;78.07;99883.97;5051568;28;20160;-71
2021/08/16 09:25:29;;;;;;;8.13;4.20;;;;;;;20.09;77.35;99874.00;5034913;28;20270;-71
2021/08/16 09:27:54;;;;;;;6.23;4.60;;;;;;;20.19;77.25;99874.72;5051059;28;20578;-68
2021/08/16 09:30:35;;;;;;;8.23;4.17;;;;;;;20.23;76.88;99874.22;5052421;28;20222;-70
2021/08/16 09:33:15;;;;;;;4.93;3.80;;;;;;;20.09;77.07;99869.44;5051125;28;20676;-70
2021/08/16 09:35:56;;;;;;;6.63;3.80;;;;;;;19.85;78.13;99872.06;5034415;28;20171;-70
2021/08/16 09:38:39;;;;;;;9.07;4.67;;;;;;;19.76;77.36;99876.59;5051483;28;20718;-70
2021/08/16 09:41:06;;;;;;;5.70;4.03;;;;;;;19.89;76.68;99873.44;5034881;28;20160;-70
2021/08/16 09:43:32;;;;;;;7.83;4.13;;;;;;;19.95;76.23;99879.03;5034652;28;20202;-70
2021/08/16 09:45:57;;;;;;;8.10;4.13;;;;;;;20.07;76.08;99876.88;5052452;28;20168;-70
2021/08/16 09:48:24;;;;;;;9.00;4.60;;;;;;;20.32;74.73;99876.94;5050920;28;20196;-69
2021/08/16 09:50:51;;;;;;;8.57;4.10;;;;;;;20.62;73.53;99868.19;5035356;28;20168;-71
2021/08/16 09:53:22;;;;;;;8.77;3.47;;;;;;;20.76;71.93;99875.63;5037977;28;20204;-71
2021/08/16 09:55:50;;;;;;;6.87;3.27;;;;;;;20.72;72.05;99868.88;5055189;28;20175;-71
2021/08/16 09:58:16;;;;;;;7.43;4.00;;;;;;;20.88;71.01;99885.16;5075931;22;20203;-69
2021/08/16 10:00:52;;;;;;;6.07;3.50;;;;;;;20.90;71.39;99872.25;5054322;28;20202;-69
2021/08/16 10:03:17;;;;;;;7.40;3.60;;;;;;;20.71;71.89;99859.03;5037550;28;20175;-68
2021/08/16 10:05:45;;;;;;;8.37;3.87;;;;;;;20.91;72.00;99873.97;5054241;28;20176;-68
2021/08/16 10:08:12;;;;;;;5.37;3.20;;;;;;;20.91;71.16;99871.25;5054117;28;20221;-68
2021/08/16 10:10:40;;;;;;;7.23;3.50;;;;;;;20.86;71.61;99891.75;5054637;28;20691;-68
2021/08/16 10:13:07;;;;;;;6.97;3.97;;;;;;;20.70;70.91;99868.19;5037550;28;20222;-68
2021/08/16 10:15:44;;;;;;;8.17;3.13;;;;;;;20.59;70.43;99880.22;5054084;28;20659;-69
2021/08/16 10:18:12;;;;;;;6.43;3.00;;;;;;;20.92;70.53;99875.66;5055373;28;20200;-69
2021/08/16 10:20:38;;;;;;;5.90;3.50;;;;;;;21.06;69.61;99886.81;5037314;28;20636;-68
2021/08/16 10:23:18;;;;;;;11.97;4.10;;;;;;;21.01;69.10;99875.63;5054214;28;20168;-69
2021/08/16 10:25:46;;;;;;;7.60;3.47;;;;;;;21.09;68.54;99875.63;5054308;28;20297;-69
2021/08/16 10:28:43;;;;;;;8.33;3.67;;;;;;;20.93;69.24;99871.06;5054251;28;20627;-69
2021/08/16 10:31:08;;;;;;;6.17;3.00;;;;;;;20.87;69.63;99864.47;5052812;28;20206;-69
2021/08/16 10:33:43;;;;;;;7.63;2.93;;;;;;;20.58;69.46;99874.97;5055463;28;20195;-69
2021/08/16 10:36:18;;;;;;;9.77;4.27;;;;;;;20.32;70.63;99885.91;5054098;28;20187;-70
2021/08/16 10:38:51;;;;;;;6.80;3.63;;;;;;;20.11;70.88;99875.53;5054901;28;20290;-70
2021/08/16 10:41:27;;;;;;;6.37;3.00;;;;;;;20.07;71.62;99885.03;5054216;28;20226;-70
2021/08/16 10:43:53;;;;;;;9.80;3.00;;;;;;;20.05;70.63;99878.88;5055418;28;20547;-69
2021/08/16 10:46:23;;;;;;;5.83;3.00;;;;;;;20.13;70.76;99878.09;5055365;28;20184;-69
2021/08/16 10:49:06;;;;;;;6.17;2.80;;;;;;;20.31;70.86;99862.53;5054803;28;20203;-70
2021/08/16 10:51:58;;;;;;;5.63;2.73;;;;;;;20.74;69.78;99857.84;5054107;28;20616;-71
2021/08/16 10:54:28;;;;;;;7.33;2.80;;;;;;;21.33;66.58;99864.75;5053759;28;20219;-71
2021/08/16 10:56:55;;;;;;;8.53;3.07;;;;;;;21.71;64.90;99862.25;5053848;28;20640;-70
2021/08/16 10:59:22;;;;;;;5.23;2.77;;;;;;;22.26;64.44;99855.88;5036648;28;20687;-70
2021/08/16 11:01:48;;;;;;;6.53;3.37;;;;;;;22.95;61.65;99873.91;5036617;28;20172;-70
2021/08/16 11:04:16;;;;;;;6.30;2.97;;;;;;;22.08;63.69;99856.16;5053477;28;20186;-70
2021/08/16 11:07:00;;;;;;;4.93;2.80;;;;;;;23.24;60.84;99851.34;5053534;28;20175;-70
2021/08/16 11:09:26;;;;;;;7.23;3.10;;;;;;;24.04;58.09;99846.97;5037099;28;20667;-70
2021/08/16 11:11:54;;;;;;;9.83;2.90;;;;;;;23.86;58.20;99859.16;5053306;28;20274;-69
2021/08/16 11:14:23;;;;;;;7.97;2.93;;;;;;;24.58;56.77;99861.88;5053169;28;20217;-69
2021/08/16 11:16:50;;;;;;;5.13;2.60;;;;;;;23.78;58.44;99870.13;5053403;28;20184;-68
2021/08/16 11:19:16;;;;;;;7.83;2.70;;;;;;;22.61;60.76;99860.72;5053187;28;20206;-68
2021/08/16 11:21:56;;;;;;;8.63;2.80;;;;;;;22.12;62.90;99852.91;5054363;28;20172;-69
2021/08/16 11:24:36;;;;;;;15.50;3.20;;;;;;;22.20;63.51;99867.47;5037118;28;20179;-68